sensor_id;sensor_type;location;lat;lon;timestamp;pressure;altitude;pressure_sealevel;temperature;humidity
21431;BME280;10876;49.038;10.608;2022-07-29T00:00:00;98068.91;;;21.39;100.00
21431;BME280;10876;49.038;10.608;2022-07-29T00:02:26;98062.94;;;21.30;100.00
21431;BME280;10876;49.038;10.608;2022-07-29T00:04:53;98051.00;;;21.40;100.00
21431;BME280;10876;49.038;10.608;2022-07-29T00:07:20;98054.97;;;21.39;100.00
21431;BME280;10876;49.038;10.608;2022-07-29T00:09:47;98053.41;;;21.38;100.00
21431;BME280;10876;49.038;10.608;2022-07-29T00:12:13;98039.84;;;21.22;100.00
21431;BME280;10876;49.038;10.608;2022-07-29T00:14:40;98044.22;;;21.16;100.00
21431;BME280;10876;49.038;10.608;2022-07-29T00:17:08;98052.59;;;21.41;100.00
21431;BME280;10876;49.038;10.608;2022-07-29T00:19:35;98045.00;;;21.31;100.00
21431;BME280;10876;49.038;10.608;2022-07-29T00:22:02;98042.66;;;21.15;100.00
21431;BME280;10876;49.038;10.608;2022-07-29T00:24:28;98041.03;;;21.28;100.00
21431;BME280;10876;49.038;10.608;2022-07-29T00:26:55;98040.25;;;21.39;100.00
21431;BME280;10876;49.038;10.608;2022-07-29T00:29:22;98042.22;;;21.31;100.00
21431;BME280;10876;49.038;10.608;2022-07-29T00:31:48;98031.09;;;21.13;100.00
21431;BME280;10876;49.038;10.608;2022-07-29T00:34:17;98028.31;;;21.06;100.00
21431;BME280;10876;49.038;10.608;2022-07-29T00:37:01;98029.50;;;21.08;100.00
21431;BME280;10876;49.038;10.608;2022-07-29T00:39:28;98025.53;;;20.88;100.00
21431;BME280;10876;49.038;10.608;2022-07-29T00:41:55;98024.72;;;20.77;100.00
21431;BME280;10876;49.038;10.608;2022-07-29T00:44:22;98037.41;;;20.56;100.00
21431;BME280;10876;49.038;10.608;2022-07-29T00:46:48;98052.53;;;20.62;100.00
21431;BME280;10876;49.038;10.608;2022-07-29T00:49:16;98065.28;;;20.70;100.00
21431;BME280;10876;49.038;10.608;2022-07-29T00:51:43;98079.59;;;20.73;100.00
21431;BME280;10876;49.038;10.608;2022-07-29T00:54:10;98089.13;;;20.72;100.00
21431;BME280;10876;49.038;10.608;2022-07-29T00:56:37;98102.25;;;20.67;100.00
21431;BME280;10876;49.038;10.608;2022-07-29T00:59:04;98105.81;;;20.68;100.00
21431;BME280;10876;49.038;10.608;2022-07-29T01:01:30;98102.19;;;20.53;100.00
21431;BME280;10876;49.038;10.608;2022-07-29T01:03:57;98101.75;;;20.51;100.00
21431;BME280;10876;49.038;10.608;2022-07-29T01:06:26;98104.53;;;20.51;100.00
21431;BME280;10876;49.038;10.608;2022-07-29T01:08:53;98092.28;;;20.59;100.00
21431;BME280;10876;49.038;10.608;2022-07-29T01:11:20;98094.28;;;20.55;100.00
21431;BME280;10876;49.038;10.608;2022-07-29T01:13:48;98107.31;;;20.47;100.00
21431;BME280;10876;49.038;10.608;2022-07-29T01:16:20;98112.09;;;20.47;100.00
21431;BME280;10876;49.038;10.608;2022-07-29T01:18:54;98124.03;;;20.51;100.00
21431;BME280;10876;49.038;10.608;2022-07-29T01:21:40;98115.31;;;20.56;100.00
21431;BME280;10876;49.038;10.608;2022-07-29T01:24:38;98111.31;;;20.50;100.00
21431;BME280;10876;49.038;10.608;2022-07-29T01:27:21;98108.13;;;20.48;100.00
21431;BME280;10876;49.038;10.608;2022-07-29T01:29:54;98101.38;;;20.49;100.00
21431;BME280;10876;49.038;10.608;2022-07-29T01:32:26;98094.63;;;20.50;100.00
21431;BME280;10876;49.038;10.608;2022-07-29T01:34:57;98095.34;;;20.33;100.00
21431;BME280;10876;49.038;10.608;2022-07-29T01:37:29;98088.75;;;19.86;100.00
21431;BME280;10876;49.038;10.608;2022-07-29T01:40:01;98102.88;;;19.63;100.00
21431;BME280;10876;49.038;10.608;2022-07-29T01:42:33;98115.66;;;19.71;100.00
21431;BME280;10876;49.038;10.608;2022-07-29T01:45:13;98109.16;;;19.52;100.00
21431;BME280;10876;49.038;10.608;2022-07-29T01:47:44;98113.50;;;19.50;100.00
21431;BME280;10876;49.038;10.608;2022-07-29T01:50:16;98117.06;;;19.47;100.00
21431;BME280;10876;49.038;10.608;2022-07-29T01:52:47;98119.06;;;19.05;100.00
21431;BME280;10876;49.038;10.608;2022-07-29T01:55:17;98132.94;;;19.02;100.00
21431;BME280;10876;49.038;10.608;2022-07-29T01:57:49;98138.72;;;18.86;100.00
21431;BME280;10876;49.038;10.608;2022-07-29T02:00:18;98149.00;;;18.85;100.00
21431;BME280;10876;49.038;10.608;2022-07-29T02:02:47;98154.47;;;19.12;100.00
21431;BME280;10876;49.038;10.608;2022-07-29T02:05:16;98155.38;;;19.27;100.00
21431;BME280;10876;49.038;10.608;2022-07-29T02:07:46;98160.59;;;19.32;100.00
21431;BME280;10876;49.038;10.608;2022-07-29T02:10:14;98171.59;;;19.21;100.00
21431;BME280;10876;49.038;10.608;2022-07-29T02:12:44;98163.06;;;18.66;100.00
21431;BME280;10876;49.038;10.608;2022-07-29T02:15:11;98158.09;;;18.49;100.00
21431;BME280;10876;49.038;10.608;2022-07-29T02:17:42;98169.44;;;18.70;100.00
21431;BME280;10876;49.038;10.608;2022-07-29T02:20:10;98167.78;;;18.65;100.00
21431;BME280;10876;49.038;10.608;2022-07-29T02:22:39;98167.53;;;18.14;100.00
21431;BME280;10876;49.038;10.608;2022-07-29T02:25:08;98171.50;;;17.86;100.00
21431;BME280;10876;49.038;10.608;2022-07-29T02:27:37;98168.06;;;18.23;100.00
21431;BME280;10876;49.038;10.608;2022-07-29T02:30:07;98181.00;;;18.45;100.00
21431;BME280;10876;49.038;10.608;2022-07-29T02:32:36;98177.09;;;18.46;100.00
21431;BME280;10876;49.038;10.608;2022-07-29T02:35:06;98181.88;;;18.50;100.00
21431;BME280;10876;49.038;10.608;2022-07-29T02:37:35;98181.53;;;18.24;100.00
21431;BME280;10876;49.038;10.608;2022-07-29T02:40:04;98183.56;;;18.28;100.00
21431;BME280;10876;49.038;10.608;2022-07-29T02:42:33;98193.50;;;18.29;100.00
21431;BME280;10876;49.038;10.608;2022-07-29T02:45:00;98196.09;;;18.48;100.00
21431;BME280;10876;49.038;10.608;2022-07-29T02:47:30;98195.97;;;18.37;100.00
21431;BME280;10876;49.038;10.608;2022-07-29T02:50:02;98208.69;;;18.42;100.00
21431;BME280;10876;49.038;10.608;2022-07-29T02:52:40;98212.44;;;18.23;100.00
21431;BME280;10876;49.038;10.608;2022-07-29T02:55:15;98224.69;;;17.95;100.00
21431;BME280;10876;49.038;10.608;2022-07-29T02:57:46;98228.63;;;17.94;100.00
21431;BME280;10876;49.038;10.608;2022-07-29T03:00:15;98237.88;;;17.79;100.00
21431;BME280;10876;49.038;10.608;2022-07-29T03:02:45;98269.03;;;17.95;100.00
21431;BME280;10876;49.038;10.608;2022-07-29T03:05:16;98263.69;;;18.10;100.00
21431;BME280;10876;49.038;10.608;2022-07-29T03:07:48;98311.25;;;18.12;100.00
21431;BME280;10876;49.038;10.608;2022-07-29T03:10:16;98323.72;;;18.25;100.00
21431;BME280;10876;49.038;10.608;2022-07-29T03:12:43;98364.47;;;18.21;100.00
21431;BME280;10876;49.038;10.608;2022-07-29T03:15:10;98369.72;;;18.03;100.00
21431;BME280;10876;49.038;10.608;2022-07-29T03:17:38;98416.47;;;18.05;100.00
21431;BME280;10876;49.038;10.608;2022-07-29T03:20:07;98451.88;;;17.92;100.00
21431;BME280;10876;49.038;10.608;2022-07-29T03:22:38;98521.72;;;18.01;100.00
21431;BME280;10876;49.038;10.608;2022-07-29T03:25:11;98556.06;;;17.77;100.00
21431;BME280;10876;49.038;10.608;2022-07-29T03:27:38;98624.78;;;17.71;100.00
21431;BME280;10876;49.038;10.608;2022-07-29T03:30:06;98646.84;;;17.68;100.00
21431;BME280;10876;49.038;10.608;2022-07-29T03:32:33;98668.28;;;17.71;100.00
21431;BME280;10876;49.038;10.608;2022-07-29T03:35:00;98699.31;;;17.92;100.00
21431;BME280;10876;49.038;10.608;2022-07-29T03:37:27;98743.47;;;18.01;100.00
21431;BME280;10876;49.038;10.608;2022-07-29T03:39:56;98757.88;;;18.07;100.00
21431;BME280;10876;49.038;10.608;2022-07-29T03:42:26;98759.91;;;18.10;100.00
21431;BME280;10876;49.038;10.608;2022-07-29T03:44:55;98774.31;;;17.99;100.00
21431;BME280;10876;49.038;10.608;2022-07-29T03:47:27;98783.00;;;17.98;100.00
21431;BME280;10876;49.038;10.608;2022-07-29T03:49:59;98780.41;;;17.89;100.00
21431;BME280;10876;49.038;10.608;2022-07-29T03:52:28;98789.13;;;17.60;100.00
21431;BME280;10876;49.038;10.608;2022-07-29T03:54:54;98815.94;;;17.27;100.00
21431;BME280;10876;49.038;10.608;2022-07-29T03:57:26;98905.88;;;17.18;100.00
21431;BME280;10876;49.038;10.608;2022-07-29T03:59:54;98943.41;;;17.31;100.00
21431;BME280;10876;49.038;10.608;2022-07-29T04:02:21;98974.25;;;17.29;100.00
21431;BME280;10876;49.038;10.608;2022-07-29T04:04:49;98977.16;;;17.21;100.00
21431;BME280;10876;49.038;10.608;2022-07-29T04:07:15;99001.81;;;17.38;100.00
21431;BME280;10876;49.038;10.608;2022-07-29T04:09:42;99003.78;;;17.13;100.00
21431;BME280;10876;49.038;10.608;2022-07-29T04:12:09;99016.94;;;17.04;100.00
21431;BME280;10876;49.038;10.608;2022-07-29T04:14:37;99040.84;;;17.08;100.00
21431;BME280;10876;49.038;10.608;2022-07-29T04:17:04;99058.78;;;17.02;100.00
21431;BME280;10876;49.038;10.608;2022-07-29T04:19:32;99069.19;;;16.93;100.00
21431;BME280;10876;49.038;10.608;2022-07-29T04:21:59;99027.75;;;16.72;100.00
21431;BME280;10876;49.038;10.608;2022-07-29T04:24:27;98936.00;;;16.70;100.00
21431;BME280;10876;49.038;10.608;2022-07-29T04:26:54;98926.56;;;16.71;100.00
21431;BME280;10876;49.038;10.608;2022-07-29T04:29:20;98900.13;;;16.98;100.00
21431;BME280;10876;49.038;10.608;2022-07-29T04:31:48;98816.56;;;17.21;100.00
21431;BME280;10876;49.038;10.608;2022-07-29T04:34:15;98817.03;;;17.23;100.00
21431;BME280;10876;49.038;10.608;2022-07-29T04:36:42;98840.31;;;17.22;100.00
21431;BME280;10876;49.038;10.608;2022-07-29T04:39:09;98855.56;;;17.16;100.00
21431;BME280;10876;49.038;10.608;2022-07-29T04:41:36;98845.53;;;17.11;100.00
21431;BME280;10876;49.038;10.608;2022-07-29T04:44:03;98853.66;;;17.32;100.00
21431;BME280;10876;49.038;10.608;2022-07-29T04:46:31;98853.38;;;17.49;100.00
21431;BME280;10876;49.038;10.608;2022-07-29T04:48:59;98866.09;;;17.66;100.00
21431;BME280;10876;49.038;10.608;2022-07-29T04:51:26;98871.00;;;17.73;100.00
21431;BME280;10876;49.038;10.608;2022-07-29T04:53:52;98866.06;;;17.94;100.00
21431;BME280;10876;49.038;10.608;2022-07-29T04:56:19;98876.00;;;18.11;100.00
21431;BME280;10876;49.038;10.608;2022-07-29T04:58:46;98887.56;;;18.29;100.00
21431;BME280;10876;49.038;10.608;2022-07-29T05:01:13;98878.41;;;18.44;100.00
21431;BME280;10876;49.038;10.608;2022-07-29T05:03:40;98864.22;;;18.65;100.00
21431;BME280;10876;49.038;10.608;2022-07-29T05:06:08;98844.34;;;18.79;100.00
21431;BME280;10876;49.038;10.608;2022-07-29T05:08:35;98838.25;;;18.89;100.00
21431;BME280;10876;49.038;10.608;2022-07-29T05:11:01;98815.72;;;19.14;100.00
21431;BME280;10876;49.038;10.608;2022-07-29T05:13:28;98800.25;;;19.32;100.00
21431;BME280;10876;49.038;10.608;2022-07-29T05:15:55;98774.31;;;19.48;100.00
21431;BME280;10876;49.038;10.608;2022-07-29T05:18:23;98635.19;;;19.60;100.00
21431;BME280;10876;49.038;10.608;2022-07-29T05:20:50;98451.06;;;19.63;100.00
21431;BME280;10876;49.038;10.608;2022-07-29T05:23:21;98441.72;;;19.78;100.00
21431;BME280;10876;49.038;10.608;2022-07-29T05:25:48;98440.66;;;19.90;100.00
21431;BME280;10876;49.038;10.608;2022-07-29T05:28:38;98431.22;;;19.98;100.00
21431;BME280;10876;49.038;10.608;2022-07-29T05:31:08;98424.31;;;20.22;100.00
21431;BME280;10876;49.038;10.608;2022-07-29T05:33:35;98423.63;;;20.33;100.00
21431;BME280;10876;49.038;10.608;2022-07-29T05:36:02;98404.97;;;20.37;100.00
21431;BME280;10876;49.038;10.608;2022-07-29T05:38:32;98396.84;;;20.58;100.00
21431;BME280;10876;49.038;10.608;2022-07-29T05:41:01;98389.00;;;20.75;100.00
21431;BME280;10876;49.038;10.608;2022-07-29T05:43:27;98361.97;;;20.79;100.00
21431;BME280;10876;49.038;10.608;2022-07-29T05:45:54;98351.31;;;20.91;100.00
21431;BME280;10876;49.038;10.608;2022-07-29T05:48:21;98350.94;;;20.93;100.00
21431;BME280;10876;49.038;10.608;2022-07-29T05:50:48;98345.41;;;21.04;100.00
21431;BME280;10876;49.038;10.608;2022-07-29T05:53:14;98335.16;;;21.26;100.00
21431;BME280;10876;49.038;10.608;2022-07-29T05:55:43;98320.84;;;21.31;100.00
21431;BME280;10876;49.038;10.608;2022-07-29T05:58:10;98314.47;;;21.27;100.00
21431;BME280;10876;49.038;10.608;2022-07-29T06:00:36;98304.22;;;21.45;100.00
21431;BME280;10876;49.038;10.608;2022-07-29T06:03:03;98291.06;;;21.42;100.00
21431;BME280;10876;49.038;10.608;2022-07-29T06:05:30;98289.13;;;21.68;100.00
21431;BME280;10876;49.038;10.608;2022-07-29T06:07:56;98283.56;;;21.86;100.00
21431;BME280;10876;49.038;10.608;2022-07-29T06:10:23;98273.63;;;21.81;100.00
21431;BME280;10876;49.038;10.608;2022-07-29T06:12:51;98278.78;;;21.65;100.00
21431;BME280;10876;49.038;10.608;2022-07-29T06:15:18;98270.00;;;21.63;100.00
21431;BME280;10876;49.038;10.608;2022-07-29T06:17:45;98256.47;;;21.72;100.00
21431;BME280;10876;49.038;10.608;2022-07-29T06:20:13;98257.22;;;21.51;100.00
21431;BME280;10876;49.038;10.608;2022-07-29T06:22:40;98260.03;;;21.69;100.00
21431;BME280;10876;49.038;10.608;2022-07-29T06:25:07;98258.06;;;21.58;100.00
21431;BME280;10876;49.038;10.608;2022-07-29T06:27:34;98255.69;;;21.64;100.00
21431;BME280;10876;49.038;10.608;2022-07-29T06:30:03;98258.06;;;21.73;100.00
21431;BME280;10876;49.038;10.608;2022-07-29T06:32:32;98262.44;;;21.74;100.00
21431;BME280;10876;49.038;10.608;2022-07-29T06:34:58;98258.88;;;21.80;100.00
21431;BME280;10876;49.038;10.608;2022-07-29T06:37:25;98259.25;;;21.82;100.00
21431;BME280;10876;49.038;10.608;2022-07-29T06:39:52;98257.28;;;21.90;100.00
21431;BME280;10876;49.038;10.608;2022-07-29T06:42:41;98247.31;;;21.96;100.00
21431;BME280;10876;49.038;10.608;2022-07-29T06:45:10;98238.97;;;22.03;100.00
21431;BME280;10876;49.038;10.608;2022-07-29T06:47:37;98237.75;;;21.97;100.00
21431;BME280;10876;49.038;10.608;2022-07-29T06:50:05;98237.38;;;21.95;100.00
21431;BME280;10876;49.038;10.608;2022-07-29T06:52:31;98232.94;;;22.09;100.00
21431;BME280;10876;49.038;10.608;2022-07-29T06:54:58;98228.19;;;21.95;100.00
21431;BME280;10876;49.038;10.608;2022-07-29T06:57:25;98232.59;;;22.21;100.00
21431;BME280;10876;49.038;10.608;2022-07-29T06:59:51;98235.75;;;22.23;100.00
21431;BME280;10876;49.038;10.608;2022-07-29T07:02:20;98235.75;;;22.23;100.00
21431;BME280;10876;49.038;10.608;2022-07-29T07:04:46;98243.34;;;22.22;100.00
21431;BME280;10876;49.038;10.608;2022-07-29T07:07:13;98249.28;;;22.39;100.00
21431;BME280;10876;49.038;10.608;2022-07-29T07:09:40;98245.31;;;22.33;100.00
21431;BME280;10876;49.038;10.608;2022-07-29T07:12:07;98234.94;;;22.37;100.00
21431;BME280;10876;49.038;10.608;2022-07-29T07:14:33;98238.16;;;22.21;100.00
21431;BME280;10876;49.038;10.608;2022-07-29T07:17:00;98238.88;;;22.54;100.00
21431;BME280;10876;49.038;10.608;2022-07-29T07:19:31;98234.13;;;22.51;100.00
21431;BME280;10876;49.038;10.608;2022-07-29T07:21:58;98236.06;;;22.68;100.00
21431;BME280;10876;49.038;10.608;2022-07-29T07:24:25;98238.84;;;22.68;100.00
21431;BME280;10876;49.038;10.608;2022-07-29T07:26:51;98233.16;;;22.93;100.00
21431;BME280;10876;49.038;10.608;2022-07-29T07:29:19;98232.44;;;22.71;100.00
21431;BME280;10876;49.038;10.608;2022-07-29T07:31:46;98228.38;;;22.93;100.00
21431;BME280;10876;49.038;10.608;2022-07-29T07:34:13;98224.47;;;22.66;100.00
21431;BME280;10876;49.038;10.608;2022-07-29T07:36:41;98229.22;;;22.80;100.00
21431;BME280;10876;49.038;10.608;2022-07-29T07:39:08;98215.63;;;22.92;100.00
21431;BME280;10876;49.038;10.608;2022-07-29T07:41:34;98211.66;;;22.83;100.00
21431;BME280;10876;49.038;10.608;2022-07-29T07:44:01;98202.09;;;22.77;100.00
21431;BME280;10876;49.038;10.608;2022-07-29T07:46:28;98206.06;;;22.83;100.00
21431;BME280;10876;49.038;10.608;2022-07-29T07:48:54;98211.63;;;23.01;100.00
21431;BME280;10876;49.038;10.608;2022-07-29T07:51:21;98204.31;;;23.17;100.00
21431;BME280;10876;49.038;10.608;2022-07-29T07:53:49;98202.16;;;23.47;100.00
21431;BME280;10876;49.038;10.608;2022-07-29T07:56:16;98211.81;;;23.91;100.00
21431;BME280;10876;49.038;10.608;2022-07-29T07:58:43;98198.28;;;23.86;100.00
21431;BME280;10876;49.038;10.608;2022-07-29T08:01:09;98190.47;;;23.59;100.00
21431;BME280;10876;49.038;10.608;2022-07-29T08:03:36;98193.78;;;23.47;100.00
21431;BME280;10876;49.038;10.608;2022-07-29T08:06:04;98190.91;;;23.54;100.00
21431;BME280;10876;49.038;10.608;2022-07-29T08:08:31;98192.84;;;23.60;100.00
21431;BME280;10876;49.038;10.608;2022-07-29T08:10:59;98189.31;;;24.05;100.00
21431;BME280;10876;49.038;10.608;2022-07-29T08:13:27;98178.00;;;24.16;100.00
21431;BME280;10876;49.038;10.608;2022-07-29T08:15:56;98183.22;;;24.86;100.00
21431;BME280;10876;49.038;10.608;2022-07-29T08:18:28;98170.50;;;25.39;100.00
21431;BME280;10876;49.038;10.608;2022-07-29T08:20:55;98153.06;;;25.51;100.00
21431;BME280;10876;49.038;10.608;2022-07-29T08:23:22;98152.72;;;25.73;100.00
21431;BME280;10876;49.038;10.608;2022-07-29T08:25:49;98140.75;;;26.16;100.00
21431;BME280;10876;49.038;10.608;2022-07-29T08:28:18;98135.06;;;26.39;100.00
21431;BME280;10876;49.038;10.608;2022-07-29T08:30:44;98125.09;;;26.15;100.00
21431;BME280;10876;49.038;10.608;2022-07-29T08:33:11;98130.94;;;26.24;100.00
21431;BME280;10876;49.038;10.608;2022-07-29T08:35:38;98124.47;;;26.27;100.00
21431;BME280;10876;49.038;10.608;2022-07-29T08:38:05;98126.25;;;26.77;100.00
21431;BME280;10876;49.038;10.608;2022-07-29T08:40:32;98119.81;;;26.96;100.00
21431;BME280;10876;49.038;10.608;2022-07-29T08:42:59;98112.03;;;27.04;100.00
21431;BME280;10876;49.038;10.608;2022-07-29T08:45:41;98113.84;;;26.94;100.00
21431;BME280;10876;49.038;10.608;2022-07-29T08:48:11;98100.81;;;26.84;100.00
21431;BME280;10876;49.038;10.608;2022-07-29T08:50:38;98106.06;;;27.35;100.00
21431;BME280;10876;49.038;10.608;2022-07-29T08:53:07;98104.38;;;27.05;100.00
21431;BME280;10876;49.038;10.608;2022-07-29T08:55:38;98097.03;;;27.44;100.00
21431;BME280;10876;49.038;10.608;2022-07-29T08:58:07;98093.16;;;27.21;100.00
21431;BME280;10876;49.038;10.608;2022-07-29T09:00:37;98089.34;;;26.59;100.00
21431;BME280;10876;49.038;10.608;2022-07-29T09:03:04;98080.97;;;26.35;100.00
21431;BME280;10876;49.038;10.608;2022-07-29T09:05:32;98075.25;;;26.95;100.00
21431;BME280;10876;49.038;10.608;2022-07-29T09:07:59;98075.94;;;27.19;100.00
21431;BME280;10876;49.038;10.608;2022-07-29T09:10:26;98084.50;;;27.77;100.00
21431;BME280;10876;49.038;10.608;2022-07-29T09:12:54;98075.59;;;27.95;100.00
21431;BME280;10876;49.038;10.608;2022-07-29T09:15:21;98073.28;;;27.45;100.00
21431;BME280;10876;49.038;10.608;2022-07-29T09:17:49;98076.38;;;26.81;100.00
21431;BME280;10876;49.038;10.608;2022-07-29T09:20:19;98072.56;;;27.08;100.00
21431;BME280;10876;49.038;10.608;2022-07-29T09:22:47;98072.00;;;26.80;100.00
21431;BME280;10876;49.038;10.608;2022-07-29T09:25:15;98077.19;;;26.98;100.00
21431;BME280;10876;49.038;10.608;2022-07-29T09:28:06;98072.03;;;26.96;100.00
21431;BME280;10876;49.038;10.608;2022-07-29T09:30:33;98083.88;;;26.88;100.00
21431;BME280;10876;49.038;10.608;2022-07-29T09:33:02;98076.25;;;27.05;100.00
21431;BME280;10876;49.038;10.608;2022-07-29T09:35:30;98075.03;;;27.88;100.00
21431;BME280;10876;49.038;10.608;2022-07-29T09:37:57;98065.84;;;28.13;100.00
21431;BME280;10876;49.038;10.608;2022-07-29T09:40:27;98064.16;;;28.15;100.00
21431;BME280;10876;49.038;10.608;2022-07-29T09:42:54;98075.38;;;27.73;100.00
21431;BME280;10876;49.038;10.608;2022-07-29T09:45:30;98069.00;;;28.02;100.00
21431;BME280;10876;49.038;10.608;2022-07-29T09:47:58;98073.78;;;27.89;100.00
21431;BME280;10876;49.038;10.608;2022-07-29T09:50:39;98074.81;;;28.53;100.00
21431;BME280;10876;49.038;10.608;2022-07-29T09:53:07;98063.66;;;28.62;100.00
21431;BME280;10876;49.038;10.608;2022-07-29T09:55:46;98061.28;;;28.73;100.00
21431;BME280;10876;49.038;10.608;2022-07-29T09:58:17;98057.53;;;28.64;100.00
21431;BME280;10876;49.038;10.608;2022-07-29T10:00:45;98050.91;;;28.96;100.00
21431;BME280;10876;49.038;10.608;2022-07-29T10:03:12;98052.50;;;28.71;100.00
21431;BME280;10876;49.038;10.608;2022-07-29T10:05:41;98043.78;;;28.53;100.00
21431;BME280;10876;49.038;10.608;2022-07-29T10:08:09;98037.72;;;28.67;100.00
21431;BME280;10876;49.038;10.608;2022-07-29T10:10:39;98030.41;;;29.08;100.00
21431;BME280;10876;49.038;10.608;2022-07-29T10:13:08;98036.00;;;29.34;100.00
21431;BME280;10876;49.038;10.608;2022-07-29T10:15:37;98030.53;;;29.05;100.00
21431;BME280;10876;49.038;10.608;2022-07-29T10:18:07;98041.44;;;29.15;100.00
21431;BME280;10876;49.038;10.608;2022-07-29T10:20:34;98023.72;;;29.02;100.00
21431;BME280;10876;49.038;10.608;2022-07-29T10:23:02;98031.78;;;29.38;100.00
21431;BME280;10876;49.038;10.608;2022-07-29T10:25:30;98028.94;;;29.51;100.00
21431;BME280;10876;49.038;10.608;2022-07-29T10:27:57;98029.03;;;29.95;100.00
21431;BME280;10876;49.038;10.608;2022-07-29T10:30:25;98018.50;;;29.96;100.00
21431;BME280;10876;49.038;10.608;2022-07-29T10:33:01;98008.28;;;29.89;100.00
21431;BME280;10876;49.038;10.608;2022-07-29T10:35:43;98015.63;;;29.52;100.00
21431;BME280;10876;49.038;10.608;2022-07-29T10:38:47;98014.91;;;29.13;100.00
21431;BME280;10876;49.038;10.608;2022-07-29T10:44:05;98015.03;;;29.09;100.00
21431;BME280;10876;49.038;10.608;2022-07-29T10:46:40;98011.88;;;28.69;100.00
21431;BME280;10876;49.038;10.608;2022-07-29T10:51:58;98017.28;;;28.63;100.00
21431;BME280;10876;49.038;10.608;2022-07-29T10:54:41;98012.09;;;29.00;100.00
21431;BME280;10876;49.038;10.608;2022-07-29T10:57:21;98011.59;;;29.40;100.00
21431;BME280;10876;49.038;10.608;2022-07-29T10:59:52;98013.59;;;28.79;100.00
21431;BME280;10876;49.038;10.608;2022-07-29T11:02:44;98009.09;;;28.14;100.00
21431;BME280;10876;49.038;10.608;2022-07-29T11:05:14;98016.03;;;27.97;100.00
21431;BME280;10876;49.038;10.608;2022-07-29T11:10:43;98012.56;;;27.76;100.00
21431;BME280;10876;49.038;10.608;2022-07-29T11:15:54;98006.91;;;27.76;100.00
21431;BME280;10876;49.038;10.608;2022-07-29T11:18:24;98008.84;;;28.21;100.00
21431;BME280;10876;49.038;10.608;2022-07-29T11:20:51;97998.81;;;28.88;100.00
21431;BME280;10876;49.038;10.608;2022-07-29T11:23:22;98004.53;;;29.23;100.00
21431;BME280;10876;49.038;10.608;2022-07-29T11:26:17;97997.56;;;29.02;100.00
21431;BME280;10876;49.038;10.608;2022-07-29T11:28:53;97985.34;;;29.52;100.00
21431;BME280;10876;49.038;10.608;2022-07-29T11:31:33;97984.31;;;29.94;100.00
21431;BME280;10876;49.038;10.608;2022-07-29T11:34:33;97988.81;;;30.35;100.00
21431;BME280;10876;49.038;10.608;2022-07-29T11:37:16;97986.44;;;30.12;100.00
21431;BME280;10876;49.038;10.608;2022-07-29T11:39:44;97978.19;;;29.95;100.00
21431;BME280;10876;49.038;10.608;2022-07-29T11:42:40;97959.78;;;29.69;100.00
21431;BME280;10876;49.038;10.608;2022-07-29T11:45:09;97964.56;;;29.59;100.00
21431;BME280;10876;49.038;10.608;2022-07-29T11:47:37;97969.53;;;29.20;100.00
21431;BME280;10876;49.038;10.608;2022-07-29T11:50:12;97970.47;;;29.17;100.00
21431;BME280;10876;49.038;10.608;2022-07-29T11:52:40;97962.03;;;28.79;100.00
21431;BME280;10876;49.038;10.608;2022-07-29T11:55:13;97963.50;;;28.96;100.00
21431;BME280;10876;49.038;10.608;2022-07-29T11:57:47;97962.63;;;29.34;100.00
21431;BME280;10876;49.038;10.608;2022-07-29T12:00:27;97960.19;;;28.97;100.00
21431;BME280;10876;49.038;10.608;2022-07-29T12:02:55;97961.78;;;28.86;100.00
21431;BME280;10876;49.038;10.608;2022-07-29T12:05:34;97970.34;;;28.95;100.00
21431;BME280;10876;49.038;10.608;2022-07-29T12:08:12;97967.16;;;29.18;100.00
21431;BME280;10876;49.038;10.608;2022-07-29T12:10:40;97967.28;;;29.15;100.00
21431;BME280;10876;49.038;10.608;2022-07-29T12:13:08;97964.97;;;28.62;100.00
21431;BME280;10876;49.038;10.608;2022-07-29T12:15:35;97958.63;;;28.84;100.00
21431;BME280;10876;49.038;10.608;2022-07-29T12:18:14;97959.06;;;28.95;100.00
21431;BME280;10876;49.038;10.608;2022-07-29T12:20:43;97974.44;;;28.43;100.00
21431;BME280;10876;49.038;10.608;2022-07-29T12:23:11;97966.63;;;28.34;100.00
21431;BME280;10876;49.038;10.608;2022-07-29T12:25:40;97968.09;;;28.13;100.00
21431;BME280;10876;49.038;10.608;2022-07-29T12:28:10;97978.94;;;27.40;100.00
21431;BME280;10876;49.038;10.608;2022-07-29T12:30:43;97990.50;;;27.13;100.00
21431;BME280;10876;49.038;10.608;2022-07-29T12:33:17;98004.63;;;26.40;100.00
21431;BME280;10876;49.038;10.608;2022-07-29T12:35:48;98019.94;;;25.99;100.00
21431;BME280;10876;49.038;10.608;2022-07-29T12:38:16;98044.38;;;25.79;100.00
21431;BME280;10876;49.038;10.608;2022-07-29T12:40:44;98044.06;;;25.73;100.00
21431;BME280;10876;49.038;10.608;2022-07-29T12:43:13;98053.13;;;25.81;100.00
21431;BME280;10876;49.038;10.608;2022-07-29T12:45:43;98053.13;;;25.81;100.00
21431;BME280;10876;49.038;10.608;2022-07-29T12:48:10;98066.09;;;25.51;100.00
21431;BME280;10876;49.038;10.608;2022-07-29T12:50:54;98060.63;;;25.44;100.00
21431;BME280;10876;49.038;10.608;2022-07-29T12:53:22;98065.34;;;25.24;100.00
21431;BME280;10876;49.038;10.608;2022-07-29T12:55:51;98069.66;;;25.55;100.00
21431;BME280;10876;49.038;10.608;2022-07-29T12:58:29;98071.69;;;25.75;100.00
21431;BME280;10876;49.038;10.608;2022-07-29T13:01:02;98078.72;;;25.87;100.00
21431;BME280;10876;49.038;10.608;2022-07-29T13:03:44;98082.66;;;25.89;100.00